Time,TemperatureF,DewpointF,PressureIn,WindDirection,WindDirectionDegrees,WindSpeedMPH,WindSpeedGustMPH,Humidity,HourlyPrecipIn,Conditions,Clouds,dailyrainin,SolarRadiationWatts/m^2,SoftwareType,DateUTC
2013-02-04 00:03:00,45.5,37.7,29.98,NNE,22,0.0,0.0,74,0.00,CLR,OVC,0.00,0.0,WeatherDisplay:10.37,2013-02-04 08:03:00,
2013-02-04 00:08:00,45.5,37.7,29.98,ESE,112,0.0,0.0,74,0.00,CLR,OVC,0.00,0.0,WeatherDisplay:10.37,2013-02-04 08:08:00,
2013-02-04 00:13:00,45.5,37.7,29.98,SE,135,0.0,0.0,74,0.00,CLR,OVC,0.00,0.0,WeatherDisplay:10.37,2013-02-04 08:13:00,
2013-02-04 00:18:00,45.3,37.5,29.98,West,270,0.0,0.0,74,0.00,CLR,OVC,0.00,0.0,WeatherDisplay:10.37,2013-02-04 08:18:00,
2013-02-04 00:23:00,45.3,37.5,29.98,SW,225,0.0,0.0,74,0.00,CLR,OVC,0.00,0.0,WeatherDisplay:10.37,2013-02-04 08:23:00,
2013-02-04 00:28:00,45.1,37.3,29.99,NW,315,0.0,0.0,74,0.00,CLR,OVC,0.00,0.0,WeatherDisplay:10.37,2013-02-04 08:28:00,
2013-02-04 00:33:00,45.1,37.3,29.99,North,0,0.0,0.0,74,0.00,CLR,OVC,0.00,0.0,WeatherDisplay:10.37,2013-02-04 08:33:00,
2013-02-04 00:38:00,45.0,37.2,29.99,SE,135,0.0,0.0,74,0.00,CLR,OVC,0.00,0.0,WeatherDisplay:10.37,2013-02-04 08:38:00,
2013-02-04 00:43:00,45.0,37.5,29.99,South,180,0.0,0.0,75,0.00,CLR,OVC,0.00,0.0,WeatherDisplay:10.37,2013-02-04 08:43:00,
2013-02-04 00:48:00,45.0,37.5,29.99,ENE,68,0.0,0.0,75,0.00,CLR,OVC,0.00,0.0,WeatherDisplay:10.37,2013-02-04 08:48:00,
2013-02-04 00:53:00,44.8,37.3,29.99,ESE,112,0.0,0.0,75,0.00,CLR,OVC,0.00,0.0,WeatherDisplay:10.37,2013-02-04 08:53:00,
2013-02-04 00:58:00,44.6,37.2,29.99,SE,135,1.2,1.2,75,0.00,CLR,OVC,0.00,0.0,WeatherDisplay:10.37,2013-02-04 08:58:00,
2013-02-04 01:03:00,44.6,37.2,29.99,SE,135,0.0,0.2,75,0.00,CLR,OVC,0.00,0.0,WeatherDisplay:10.37,2013-02-04 09:03:00,
2013-02-04 01:08:00,44.6,37.5,29.98,SE,135,0.0,0.1,76,0.00,CLR,OVC,0.00,0.0,WeatherDisplay:10.37,2013-02-04 09:08:00,
2013-02-04 01:13:00,44.4,37.3,29.98,East,90,0.0,0.0,76,0.00,CLR,OVC,0.00,0.0,WeatherDisplay:10.37,2013-02-04 09:13:00,
2013-02-04 01:18:00,44.4,37.7,29.98,SE,135,0.0,0.0,77,0.00,CLR,OVC,0.00,0.0,WeatherDisplay:10.37,2013-02-04 09:18:00,
2013-02-04 01:23:00,44.4,37.7,29.98,SE,135,0.0,0.0,77,0.00,CLR,OVC,0.00,0.0,WeatherDisplay:10.37,2013-02-04 09:23:00,
2013-02-04 01:28:00,44.2,37.5,29.99,ESE,112,0.0,0.0,77,0.00,CLR,OVC,0.00,0.0,WeatherDisplay:10.37,2013-02-04 09:28:00,
2013-02-04 01:33:00,44.2,37.5,29.99,SE,135,1.2,0.0,77,0.00,CLR,OVC,0.00,0.0,WeatherDisplay:10.37,2013-02-04 09:33:00,
2013-02-04 01:38:00,44.1,37.3,29.99,ESE,112,0.0,0.0,77,0.00,CLR,OVC,0.00,0.0,WeatherDisplay:10.37,2013-02-04 09:38:00,
2013-02-04 01:43:00,44.2,37.5,29.99,SE,135,0.0,0.0,77,0.00,CLR,OVC,0.00,0.0,WeatherDisplay:10.37,2013-02-04 09:43:00,
2013-02-04 01:48:00,44.1,37.6,30.00,NE,45,0.0,0.1,78,0.00,CLR,OVC,0.00,0.0,WeatherDisplay:10.37,2013-02-04 09:48:00,
2013-02-04 01:53:00,44.1,37.6,30.00,SE,135,0.0,0.1,78,0.00,CLR,OVC,0.00,0.0,WeatherDisplay:10.37,2013-02-04 09:53:00,
2013-02-04 01:58:00,43.9,37.5,30.00,NNE,22,0.0,0.0,78,0.00,CLR,OVC,0.00,0.0,WeatherDisplay:10.37,2013-02-04 09:58:00,
2013-02-04 02:03:00,43.9,37.5,30.00,NNW,338,0.0,0.0,78,0.00,CLR,OVC,0.00,0.0,WeatherDisplay:10.37,2013-02-04 10:03:00,
2013-02-04 02:08:00,43.7,37.3,30.00,ENE,68,1.2,0.0,78,0.00,CLR,OVC,0.00,0.0,WeatherDisplay:10.37,2013-02-04 10:08:00,
2013-02-04 02:13:00,43.7,37.3,30.00,South,180,0.0,0.0,78,0.00,CLR,OVC,0.00,0.0,WeatherDisplay:10.37,2013-02-04 10:13:00,
2013-02-04 02:18:00,43.5,37.1,30.00,SW,225,0.0,0.0,78,0.00,CLR,OVC,0.00,0.0,WeatherDisplay:10.37,2013-02-04 10:18:00,
2013-02-04 02:23:00,43.5,37.1,30.00,SSE,158,0.0,0.0,78,0.00,CLR,OVC,0.00,0.0,WeatherDisplay:10.37,2013-02-04 10:23:00,
2013-02-04 02:28:00,43.3,36.9,30.00,SE,135,0.0,0.0,78,0.00,CLR,OVC,0.00,0.0,WeatherDisplay:10.37,2013-02-04 10:28:00,
2013-02-04 02:33:00,43.3,36.9,30.00,SE,135,0.0,0.0,78,0.00,CLR,OVC,0.00,0.0,WeatherDisplay:10.37,2013-02-04 10:33:00,
2013-02-04 02:38:00,43.2,36.8,30.00,South,180,0.0,0.0,78,0.00,CLR,OVC,0.00,0.0,WeatherDisplay:10.37,2013-02-04 10:38:00,
2013-02-04 02:43:00,43.2,36.8,30.00,SW,225,0.0,0.0,78,0.00,CLR,OVC,0.00,0.0,WeatherDisplay:10.37,2013-02-04 10:43:00,
2013-02-04 02:48:00,43.2,36.8,30.00,West,270,0.0,0.0,78,0.00,CLR,OVC,0.00,0.0,WeatherDisplay:10.37,2013-02-04 10:48:00,
2013-02-04 02:53:00,43.0,36.6,30.00,NNW,338,0.0,0.0,78,0.00,CLR,OVC,0.00,0.0,WeatherDisplay:10.37,2013-02-04 10:53:00,
2013-02-04 02:58:00,43.0,36.6,30.00,West,270,0.0,0.0,78,0.00,CLR,OVC,0.00,0.0,WeatherDisplay:10.37,2013-02-04 10:58:00,
2013-02-04 03:03:00,43.0,36.6,30.00,SE,135,0.0,0.0,78,0.00,CLR,OVC,0.00,0.0,WeatherDisplay:10.37,2013-02-04 11:03:00,
2013-02-04 03:08:00,43.0,36.6,30.00,SW,225,0.0,0.0,78,0.00,CLR,OVC,0.00,0.0,WeatherDisplay:10.37,2013-02-04 11:08:00,
2013-02-04 03:13:00,42.8,36.4,30.00,East,90,0.0,0.0,78,0.00,CLR,OVC,0.00,0.0,WeatherDisplay:10.37,2013-02-04 11:13:00,
2013-02-04 03:18:00,42.8,36.7,30.00,SE,135,0.0,0.0,79,0.00,CLR,OVC,0.00,0.0,WeatherDisplay:10.37,2013-02-04 11:18:00,
2013-02-04 03:23:00,42.6,36.6,30.00,East,90,0.0,0.1,79,0.00,CLR,OVC,0.00,0.0,WeatherDisplay:10.37,2013-02-04 11:23:00,
2013-02-04 03:28:00,42.6,36.6,29.99,NNW,338,0.0,0.1,79,0.00,CLR,OVC,0.00,0.0,WeatherDisplay:10.37,2013-02-04 11:28:00,
2013-02-04 03:33:00,42.6,36.6,29.99,NE,45,0.0,0.0,79,0.00,CLR,OVC,0.00,0.0,WeatherDisplay:10.37,2013-02-04 11:33:00,
2013-02-04 03:38:00,42.6,36.6,29.99,SSE,158,0.0,0.0,79,0.00,CLR,OVC,0.00,0.0,WeatherDisplay:10.37,2013-02-04 11:38:00,
2013-02-04 03:43:00,42.6,36.9,29.99,South,180,0.0,0.0,80,0.00,CLR,OVC,0.00,0.0,WeatherDisplay:10.37,2013-02-04 11:43:00,
2013-02-04 03:48:00,42.4,36.7,29.99,SE,135,0.0,0.0,80,0.00,CLR,OVC,0.00,0.0,WeatherDisplay:10.37,2013-02-04 11:48:00,
2013-02-04 03:53:00,42.4,36.7,29.99,ESE,112,0.0,0.0,80,0.00,CLR,OVC,0.00,0.0,WeatherDisplay:10.37,2013-02-04 11:53:00,
2013-02-04 03:58:00,42.3,36.5,29.99,SE,135,0.0,0.0,80,0.00,CLR,OVC,0.00,0.0,WeatherDisplay:10.37,2013-02-04 11:58:00,
2013-02-04 04:03:00,42.3,36.5,29.99,ENE,68,0.0,0.0,80,0.00,CLR,OVC,0.00,0.0,WeatherDisplay:10.37,2013-02-04 12:03:00,
2013-02-04 04:08:00,42.1,36.4,29.99,SE,135,0.0,0.2,80,0.00,,OVC,0.00,0.0,WeatherDisplay:10.37,2013-02-04 12:08:00,
2013-02-04 04:13:00,42.1,36.4,29.99,East,90,0.0,0.2,80,0.00,,OVC,0.00,0.0,WeatherDisplay:10.37,2013-02-04 12:13:00,
2013-02-04 04:18:00,41.9,36.2,29.99,SE,135,0.0,0.0,80,0.00,,OVC,0.00,0.0,WeatherDisplay:10.37,2013-02-04 12:18:00,
2013-02-04 04:23:00,41.9,36.2,29.99,West,270,0.0,0.0,80,0.00,,OVC,0.00,0.0,WeatherDisplay:10.37,2013-02-04 12:23:00,
2013-02-04 04:28:00,41.7,36.0,29.99,ESE,112,0.0,0.0,80,0.00,,OVC,0.00,0.0,WeatherDisplay:10.37,2013-02-04 12:28:00,
2013-02-04 04:33:00,41.7,36.0,29.99,ESE,112,0.0,0.0,80,0.00,,OVC,0.00,0.0,WeatherDisplay:10.37,2013-02-04 12:33:00,
2013-02-04 04:38:00,41.5,35.8,29.99,SE,135,0.0,0.0,80,0.00,,OVC,0.00,0.0,WeatherDisplay:10.37,2013-02-04 12:38:00,
2013-02-04 04:43:00,41.5,35.8,29.99,South,180,0.0,0.0,80,0.00,,OVC,0.00,0.0,WeatherDisplay:10.37,2013-02-04 12:43:00,
2013-02-04 04:48:00,41.5,35.8,29.99,ENE,68,0.0,0.0,80,0.00,,OVC,0.00,0.0,WeatherDisplay:10.37,2013-02-04 12:48:00,
2013-02-04 04:53:00,41.4,35.7,29.99,ENE,68,0.0,0.0,80,0.00,,OVC,0.00,0.0,WeatherDisplay:10.37,2013-02-04 12:53:00,
2013-02-04 04:58:00,41.4,35.7,29.99,ENE,68,0.0,0.0,80,0.00,,OVC,0.00,0.0,WeatherDisplay:10.37,2013-02-04 12:58:00,
2013-02-04 05:03:00,41.2,35.5,29.99,ENE,68,0.0,0.0,80,0.00,,OVC,0.00,0.0,WeatherDisplay:10.37,2013-02-04 13:03:00,
2013-02-04 05:08:00,41.2,35.5,29.99,ENE,68,0.0,0.0,80,0.00,CLR,OVC,0.00,0.0,WeatherDisplay:10.37,2013-02-04 13:08:00,
2013-02-04 05:13:00,41.2,35.5,29.99,North,0,0.0,0.0,80,0.00,CLR,OVC,0.00,0.0,WeatherDisplay:10.37,2013-02-04 13:13:00,
2013-02-04 05:18:00,41.2,35.5,29.99,NNW,338,0.0,0.0,80,0.00,CLR,OVC,0.00,0.0,WeatherDisplay:10.37,2013-02-04 13:18:00,
2013-02-04 05:23:00,41.0,35.3,29.99,NNE,22,0.0,0.0,80,0.00,CLR,OVC,0.00,0.0,WeatherDisplay:10.37,2013-02-04 13:23:00,
2013-02-04 05:28:00,41.0,35.3,29.99,SSE,158,0.0,0.0,80,0.00,CLR,OVC,0.00,0.0,WeatherDisplay:10.37,2013-02-04 13:28:00,
2013-02-04 05:33:00,41.0,35.3,29.99,SE,135,0.0,0.0,80,0.00,CLR,OVC,0.00,0.0,WeatherDisplay:10.37,2013-02-04 13:33:00,
2013-02-04 05:38:00,40.8,35.1,29.99,SE,135,0.0,0.0,80,0.00,CLR,OVC,0.00,0.0,WeatherDisplay:10.37,2013-02-04 13:38:00,
2013-02-04 05:43:00,40.8,35.1,29.99,SE,135,0.0,0.0,80,0.00,CLR,OVC,0.00,0.0,WeatherDisplay:10.37,2013-02-04 13:43:00,
2013-02-04 05:48:00,40.6,35.0,29.99,South,180,0.0,0.0,80,0.00,CLR,OVC,0.00,0.0,WeatherDisplay:10.37,2013-02-04 13:48:00,
2013-02-04 05:53:00,40.6,35.0,29.99,East,90,0.0,0.0,80,0.00,CLR,OVC,0.00,0.0,WeatherDisplay:10.37,2013-02-04 13:53:00,
2013-02-04 05:58:00,40.5,34.8,29.99,NNE,22,0.0,0.0,80,0.00,CLR,OVC,0.00,0.0,WeatherDisplay:10.37,2013-02-04 13:58:00,
2013-02-04 06:03:00,40.5,34.5,29.99,NNE,22,0.0,0.0,79,0.00,CLR,OVC,0.00,0.0,WeatherDisplay:10.37,2013-02-04 14:03:00,
2013-02-04 06:08:00,40.3,34.3,29.98,South,180,0.0,0.0,79,0.00,CLR,OVC,0.00,0.0,WeatherDisplay:10.37,2013-02-04 14:08:00,
2013-02-04 06:13:00,40.3,34.3,29.98,SW,225,0.0,0.0,79,0.00,CLR,OVC,0.00,0.0,WeatherDisplay:10.37,2013-02-04 14:13:00,
2013-02-04 06:18:00,40.3,34.3,29.98,East,90,0.0,0.0,79,0.00,CLR,OVC,0.00,0.0,WeatherDisplay:10.37,2013-02-04 14:18:00,
2013-02-04 06:23:00,40.1,34.1,29.98,ESE,112,0.0,0.0,79,0.00,CLR,OVC,0.00,0.0,WeatherDisplay:10.37,2013-02-04 14:23:00,
2013-02-04 06:28:00,40.1,34.4,30.00,North,0,0.0,0.0,80,0.00,CLR,OVC,0.00,0.0,WeatherDisplay:10.37,2013-02-04 14:28:00,
2013-02-04 06:33:00,40.1,34.4,30.00,NE,45,0.0,0.0,80,0.00,CLR,OVC,0.00,0.0,WeatherDisplay:10.37,2013-02-04 14:33:00,
2013-02-04 06:38:00,39.9,34.2,30.00,ESE,112,0.0,0.0,80,0.00,CLR,OVC,0.00,0.0,WeatherDisplay:10.37,2013-02-04 14:38:00,
2013-02-04 06:43:00,39.9,34.2,30.00,ESE,112,0.0,0.0,80,0.00,CLR,OVC,0.00,0.0,WeatherDisplay:10.37,2013-02-04 14:43:00,
2013-02-04 06:48:00,39.7,34.1,30.00,South,180,0.0,0.0,80,0.00,CLR,OVC,0.00,0.0,WeatherDisplay:10.37,2013-02-04 14:48:00,
2013-02-04 06:53:00,39.7,34.1,30.00,ESE,112,0.0,0.0,80,0.00,CLR,OVC,0.00,0.0,WeatherDisplay:10.37,2013-02-04 14:53:00,
2013-02-04 06:58:00,39.7,34.1,30.00,ENE,68,0.0,0.0,80,0.00,CLR,OVC,0.00,0.0,WeatherDisplay:10.37,2013-02-04 14:58:00,
2013-02-04 07:03:00,39.6,33.9,30.00,South,180,0.0,0.0,80,0.00,CLR,OVC,0.00,0.0,WeatherDisplay:10.37,2013-02-04 15:03:00,
2013-02-04 07:08:00,39.6,33.9,30.00,SSW,202,0.0,0.0,80,0.00,FEW,OVC,0.00,0.0,WeatherDisplay:10.37,2013-02-04 15:08:00,
2013-02-04 07:13:00,39.6,33.9,30.00,NW,315,0.0,0.0,80,0.00,FEW,OVC,0.00,0.0,WeatherDisplay:10.37,2013-02-04 15:13:00,
2013-02-04 07:18:00,39.6,33.9,30.00,West,270,0.0,0.0,80,0.00,FEW,OVC,0.00,0.0,WeatherDisplay:10.37,2013-02-04 15:18:00,
2013-02-04 07:23:00,39.6,33.9,30.00,SSE,158,0.0,0.0,80,0.00,FEW,OVC,0.00,0.0,WeatherDisplay:10.37,2013-02-04 15:23:00,
2013-02-04 07:28:00,39.7,34.1,30.01,NW,315,0.0,0.0,80,0.00,FEW,OVC,0.00,0.0,WeatherDisplay:10.37,2013-02-04 15:28:00,
2013-02-04 07:33:00,39.9,34.2,30.01,NNE,22,0.0,0.0,80,0.00,FEW,OVC,0.00,0.0,WeatherDisplay:10.37,2013-02-04 15:33:00,
2013-02-04 07:38:00,40.1,34.7,30.01,ENE,68,0.0,0.0,81,0.00,FEW,OVC,0.00,0.0,WeatherDisplay:10.37,2013-02-04 15:38:00,
2013-02-04 07:43:00,40.1,34.7,30.01,West,270,0.0,0.0,81,0.00,FEW,OVC,0.00,0.0,WeatherDisplay:10.37,2013-02-04 15:43:00,
2013-02-04 07:48:00,40.5,35.4,30.01,South,180,0.0,0.1,82,0.00,FEW,OVC,0.00,0.0,WeatherDisplay:10.37,2013-02-04 15:48:00,
2013-02-04 07:53:00,40.6,35.6,30.01,SSW,202,1.3,1.3,82,0.00,FEW,OVC,0.00,0.0,WeatherDisplay:10.37,2013-02-04 15:53:00,
2013-02-04 07:58:00,41.0,36.2,30.01,SSE,158,0.0,0.1,83,0.00,FEW,OVC,0.00,0.0,WeatherDisplay:10.37,2013-02-04 15:58:00,
2013-02-04 08:03:00,41.2,36.4,30.01,ESE,112,0.0,0.1,83,0.00,FEW,OVC,0.00,0.0,WeatherDisplay:10.37,2013-02-04 16:03:00,
2013-02-04 08:08:00,41.4,36.9,30.01,East,90,0.0,0.0,84,0.00,OVC,,0.00,0.0,WeatherDisplay:10.37,2013-02-04 16:08:00,
2013-02-04 08:13:00,41.5,37.4,30.01,SSE,158,0.0,0.0,85,0.00,OVC,,0.00,0.0,WeatherDisplay:10.37,2013-02-04 16:13:00,
2013-02-04 08:18:00,41.9,37.7,30.01,ESE,112,0.0,0.0,85,0.00,OVC,,0.00,0.0,WeatherDisplay:10.37,2013-02-04 16:18:00,
2013-02-04 08:23:00,42.1,38.2,30.01,SSE,158,1.2,1.2,86,0.00,OVC,,0.00,0.0,WeatherDisplay:10.37,2013-02-04 16:23:00,
2013-02-04 08:28:00,42.4,38.8,30.01,ESE,112,2.3,2.3,87,0.00,OVC,,0.00,0.0,WeatherDisplay:10.37,2013-02-04 16:28:00,
2013-02-04 08:33:00,42.6,39.0,30.01,ESE,112,1.2,1.2,87,0.00,OVC,,0.00,0.0,WeatherDisplay:10.37,2013-02-04 16:33:00,
2013-02-04 08:38:00,42.6,39.3,30.01,ESE,112,1.6,1.6,88,0.00,OVC,,0.00,0.0,WeatherDisplay:10.37,2013-02-04 16:38:00,
2013-02-04 08:43:00,42.8,39.2,30.01,ESE,112,2.3,2.3,87,0.00,OVC,,0.00,0.0,WeatherDisplay:10.37,2013-02-04 16:43:00,
2013-02-04 08:48:00,43.0,39.7,30.01,SSW,202,1.2,1.2,88,0.00,OVC,,0.00,0.0,WeatherDisplay:10.37,2013-02-04 16:48:00,
2013-02-04 08:53:00,43.2,39.8,30.01,SSE,158,0.0,0.3,88,0.00,OVC,,0.00,0.0,WeatherDisplay:10.37,2013-02-04 16:53:00,
2013-02-04 08:58:00,43.5,40.5,30.01,East,90,0.0,0.1,89,0.00,OVC,,0.00,0.0,WeatherDisplay:10.37,2013-02-04 16:58:00,
2013-02-04 09:03:00,43.7,40.7,30.01,South,180,1.2,1.2,89,0.00,OVC,,0.00,0.0,WeatherDisplay:10.37,2013-02-04 17:03:00,
2013-02-04 09:08:00,44.1,41.0,30.04,ESE,112,1.2,1.2,89,0.00,OVC,,0.00,0.0,WeatherDisplay:10.37,2013-02-04 17:08:00,
2013-02-04 09:13:00,44.2,41.5,30.04,WSW,248,0.0,0.1,90,0.00,OVC,,0.00,0.0,WeatherDisplay:10.37,2013-02-04 17:13:00,
2013-02-04 09:18:00,44.4,41.7,30.04,NW,315,1.2,1.2,90,0.00,OVC,,0.00,0.0,WeatherDisplay:10.37,2013-02-04 17:18:00,
2013-02-04 09:23:00,44.8,42.0,30.04,NE,45,1.2,1.2,90,0.00,OVC,,0.00,0.0,WeatherDisplay:10.37,2013-02-04 17:23:00,
2013-02-04 09:28:00,45.0,42.2,30.04,West,270,1.2,1.2,90,0.00,OVC,,0.00,0.0,WeatherDisplay:10.37,2013-02-04 17:28:00,
2013-02-04 09:33:00,45.1,42.4,30.04,WSW,248,1.4,1.4,90,0.00,OVC,,0.00,0.0,WeatherDisplay:10.37,2013-02-04 17:33:00,
2013-02-04 09:38:00,45.5,42.7,30.04,SE,135,1.2,1.2,90,0.00,OVC,,0.00,0.0,WeatherDisplay:10.37,2013-02-04 17:38:00,
2013-02-04 09:43:00,45.7,42.9,30.04,SSE,158,2.3,2.3,90,0.00,OVC,,0.00,0.0,WeatherDisplay:10.37,2013-02-04 17:43:00,
2013-02-04 09:48:00,46.0,43.3,30.04,ESE,112,2.3,2.3,90,0.00,OVC,,0.00,0.0,WeatherDisplay:10.37,2013-02-04 17:48:00,
2013-02-04 09:53:00,46.4,43.6,30.04,SSE,158,1.2,1.2,90,0.00,OVC,,0.00,0.0,WeatherDisplay:10.37,2013-02-04 17:53:00,
2013-02-04 09:58:00,46.8,44.0,30.04,South,180,2.3,2.3,90,0.00,OVC,,0.00,0.0,WeatherDisplay:10.37,2013-02-04 17:58:00,
2013-02-04 10:04:00,47.1,44.3,30.04,East,90,1.2,1.2,90,0.00,OVC,,0.00,0.0,WeatherDisplay:10.37,2013-02-04 18:04:00,
2013-02-04 10:09:00,47.7,44.9,30.04,SSE,158,2.3,2.3,90,0.00,OVC,,0.00,0.0,WeatherDisplay:10.37,2013-02-04 18:09:00,
2013-02-04 10:14:00,47.8,45.0,30.04,WSW,248,2.3,2.3,90,0.00,OVC,,0.00,0.0,WeatherDisplay:10.37,2013-02-04 18:14:00,
2013-02-04 10:19:00,48.0,45.2,30.04,South,180,2.3,2.3,90,0.00,OVC,,0.00,0.0,WeatherDisplay:10.37,2013-02-04 18:19:00,
2013-02-04 10:24:00,48.6,45.5,30.04,SW,225,2.3,2.3,89,0.00,OVC,,0.00,0.0,WeatherDisplay:10.37,2013-02-04 18:24:00,
2013-02-04 10:29:00,49.1,46.0,30.03,SW,225,3.5,3.5,89,0.00,OVC,,0.00,0.0,WeatherDisplay:10.37,2013-02-04 18:29:00,
2013-02-04 10:34:00,49.5,46.4,30.03,SW,225,2.6,2.6,89,0.00,OVC,,0.00,0.0,WeatherDisplay:10.37,2013-02-04 18:34:00,
2013-02-04 10:39:00,49.8,46.4,30.03,SW,225,2.3,2.3,88,0.00,OVC,,0.00,0.0,WeatherDisplay:10.37,2013-02-04 18:39:00,
2013-02-04 10:44:00,50.2,46.5,30.03,SSE,158,4.6,4.6,87,0.00,OVC,,0.00,0.0,WeatherDisplay:10.37,2013-02-04 18:44:00,
2013-02-04 10:49:00,50.5,46.8,30.03,WSW,248,2.6,2.6,87,0.00,OVC,,0.00,0.0,WeatherDisplay:10.37,2013-02-04 18:49:00,
2013-02-04 10:54:00,50.9,46.9,30.03,South,180,2.3,2.3,86,0.00,OVC,,0.00,0.0,WeatherDisplay:10.37,2013-02-04 18:54:00,
2013-02-04 10:59:00,51.3,46.9,30.03,West,270,2.3,2.3,85,0.00,OVC,,0.00,0.0,WeatherDisplay:10.37,2013-02-04 18:59:00,
2013-02-04 11:04:00,51.8,47.4,30.03,SW,225,4.6,4.6,85,0.00,OVC,,0.00,0.0,WeatherDisplay:10.37,2013-02-04 19:04:00,
2013-02-04 11:09:00,52.0,47.3,30.03,SSE,158,3.5,3.5,84,0.00,SCT,OVC,0.00,0.0,WeatherDisplay:10.37,2013-02-04 19:09:00,
2013-02-04 11:14:00,52.3,47.3,30.03,South,180,3.5,3.5,83,0.00,SCT,OVC,0.00,0.0,WeatherDisplay:10.37,2013-02-04 19:14:00,
2013-02-04 11:19:00,52.7,47.4,30.03,WSW,248,5.8,5.8,82,0.00,SCT,OVC,0.00,0.0,WeatherDisplay:10.37,2013-02-04 19:19:00,
2013-02-04 11:24:00,52.9,47.2,30.03,SW,225,4.6,4.6,81,0.00,SCT,OVC,0.00,0.0,WeatherDisplay:10.37,2013-02-04 19:24:00,
2013-02-04 11:29:00,53.2,46.9,30.03,South,180,3.5,3.5,79,0.00,SCT,OVC,0.00,0.0,WeatherDisplay:10.37,2013-02-04 19:29:00,
2013-02-04 11:34:00,53.4,47.1,30.03,South,180,2.3,2.3,79,0.00,SCT,OVC,0.00,0.0,WeatherDisplay:10.37,2013-02-04 19:34:00,
2013-02-04 11:39:00,53.8,47.1,30.03,WSW,248,4.6,4.6,78,0.00,SCT,OVC,0.00,0.0,WeatherDisplay:10.37,2013-02-04 19:39:00,
2013-02-04 11:44:00,54.0,46.9,30.03,SSE,158,2.8,2.8,77,0.00,SCT,OVC,0.00,0.0,WeatherDisplay:10.37,2013-02-04 19:44:00,
2013-02-04 11:49:00,54.7,47.6,30.02,SW,225,3.5,3.5,77,0.00,SCT,OVC,0.00,0.0,WeatherDisplay:10.37,2013-02-04 19:49:00,
2013-02-04 11:54:00,54.9,47.4,30.02,SW,225,4.6,4.6,76,0.00,SCT,OVC,0.00,0.0,WeatherDisplay:10.37,2013-02-04 19:54:00,
2013-02-04 11:59:00,55.6,47.4,30.02,South,180,2.6,2.6,74,0.00,SCT,OVC,0.00,0.0,WeatherDisplay:10.37,2013-02-04 19:59:00,
2013-02-04 12:04:00,55.6,47.4,30.02,WSW,248,3.5,3.5,74,0.00,SCT,OVC,0.00,0.0,WeatherDisplay:10.37,2013-02-04 20:04:00,
2013-02-04 12:09:00,55.9,47.0,30.00,NW,315,1.2,2.3,72,0.00,CLR,OVC,0.00,0.0,WeatherDisplay:10.37,2013-02-04 20:09:00,
2013-02-04 12:14:00,56.3,47.0,30.00,WSW,248,5.8,5.8,71,0.00,CLR,OVC,0.00,0.0,WeatherDisplay:10.37,2013-02-04 20:14:00,
2013-02-04 12:19:00,56.8,47.2,30.00,South,180,4.9,4.9,70,0.00,CLR,OVC,0.00,0.0,WeatherDisplay:10.37,2013-02-04 20:19:00,
2013-02-04 12:24:00,57.0,46.9,30.00,WSW,248,3.5,3.5,69,0.00,CLR,OVC,0.00,0.0,WeatherDisplay:10.37,2013-02-04 20:24:00,
2013-02-04 12:29:00,57.4,46.9,30.00,South,180,4.6,4.6,68,0.00,CLR,OVC,0.00,0.0,WeatherDisplay:10.37,2013-02-04 20:29:00,
2013-02-04 12:34:00,57.6,46.7,30.00,SW,225,5.8,5.8,67,0.00,CLR,OVC,0.00,0.0,WeatherDisplay:10.37,2013-02-04 20:34:00,
2013-02-04 12:39:00,58.1,46.8,30.00,WSW,248,4.6,4.6,66,0.00,CLR,OVC,0.00,0.0,WeatherDisplay:10.37,2013-02-04 20:39:00,
2013-02-04 12:44:00,58.3,47.0,30.00,South,180,3.5,3.5,66,0.00,CLR,OVC,0.00,0.0,WeatherDisplay:10.37,2013-02-04 20:44:00,
2013-02-04 12:49:00,58.6,46.9,29.98,SE,135,4.6,4.6,65,0.00,CLR,OVC,0.00,0.0,WeatherDisplay:10.37,2013-02-04 20:49:00,
2013-02-04 12:54:00,59.0,46.8,29.98,SW,225,4.6,4.6,64,0.00,CLR,OVC,0.00,0.0,WeatherDisplay:10.37,2013-02-04 20:54:00,
2013-02-04 12:59:00,59.4,46.8,29.98,SW,225,4.6,4.6,63,0.00,CLR,OVC,0.00,0.0,WeatherDisplay:10.37,2013-02-04 20:59:00,
2013-02-04 13:04:00,59.7,46.7,29.98,SSW,202,2.8,3.0,62,0.00,CLR,OVC,0.00,0.0,WeatherDisplay:10.37,2013-02-04 21:04:00,
2013-02-04 13:09:00,60.1,46.6,29.98,South,180,4.6,4.6,61,0.00,CLR,OVC,0.00,0.0,WeatherDisplay:10.37,2013-02-04 21:09:00,
2013-02-04 13:14:00,60.3,46.8,29.98,WSW,248,4.6,4.6,61,0.00,CLR,OVC,0.00,0.0,WeatherDisplay:10.37,2013-02-04 21:14:00,
2013-02-04 13:19:00,60.4,46.5,29.98,WSW,248,3.5,3.5,60,0.00,CLR,OVC,0.00,0.0,WeatherDisplay:10.37,2013-02-04 21:19:00,
2013-02-04 13:24:00,60.6,46.2,29.98,SW,225,3.5,3.5,59,0.00,CLR,OVC,0.00,0.0,WeatherDisplay:10.37,2013-02-04 21:24:00,
2013-02-04 13:29:00,61.0,46.1,29.97,South,180,4.6,4.6,58,0.00,CLR,OVC,0.00,0.0,WeatherDisplay:10.37,2013-02-04 21:29:00,
2013-02-04 13:34:00,61.2,46.3,29.97,South,180,3.5,3.5,58,0.00,CLR,OVC,0.00,0.0,WeatherDisplay:10.37,2013-02-04 21:34:00,
2013-02-04 13:39:00,61.3,46.0,29.97,East,90,2.3,2.3,57,0.00,CLR,OVC,0.00,0.0,WeatherDisplay:10.37,2013-02-04 21:39:00,
2013-02-04 13:44:00,61.7,45.8,29.97,SE,135,2.9,2.9,56,0.00,CLR,OVC,0.00,0.0,WeatherDisplay:10.37,2013-02-04 21:44:00,
2013-02-04 13:49:00,62.1,46.2,29.95,WSW,248,3.5,3.5,56,0.00,CLR,OVC,0.00,0.0,WeatherDisplay:10.37,2013-02-04 21:49:00,
2013-02-04 13:54:00,62.2,46.3,29.95,SW,225,3.5,3.5,56,0.00,CLR,OVC,0.00,0.0,WeatherDisplay:10.37,2013-02-04 21:54:00,
2013-02-04 13:59:00,62.6,46.2,29.95,South,180,3.6,3.6,55,0.00,CLR,OVC,0.00,0.0,WeatherDisplay:10.37,2013-02-04 21:59:00,
2013-02-04 14:04:00,62.8,45.9,29.95,NE,45,2.3,2.3,54,0.00,CLR,OVC,0.00,0.0,WeatherDisplay:10.37,2013-02-04 22:04:00,
2013-02-04 14:09:00,62.8,45.4,29.95,ENE,68,2.3,2.3,53,0.00,CLR,OVC,0.00,0.0,WeatherDisplay:10.37,2013-02-04 22:09:00,
2013-02-04 14:14:00,62.8,45.4,29.95,WSW,248,3.5,3.5,53,0.00,CLR,OVC,0.00,0.0,WeatherDisplay:10.37,2013-02-04 22:14:00,
2013-02-04 14:19:00,63.1,45.7,29.95,ENE,68,2.3,2.3,53,0.00,CLR,OVC,0.00,0.0,WeatherDisplay:10.37,2013-02-04 22:19:00,
2013-02-04 14:24:00,63.5,45.6,29.95,SSE,158,2.3,2.3,52,0.00,CLR,OVC,0.00,0.0,WeatherDisplay:10.37,2013-02-04 22:24:00,
2013-02-04 14:29:00,63.5,45.0,29.94,WSW,248,4.6,4.6,51,0.00,CLR,OVC,0.00,0.0,WeatherDisplay:10.37,2013-02-04 22:29:00,
2013-02-04 14:34:00,63.7,45.2,29.94,West,270,3.5,3.5,51,0.00,CLR,OVC,0.00,0.0,WeatherDisplay:10.37,2013-02-04 22:34:00,
2013-02-04 14:39:00,63.5,44.5,29.94,SW,225,3.5,3.5,50,0.00,CLR,OVC,0.00,0.0,WeatherDisplay:10.37,2013-02-04 22:39:00,
2013-02-04 14:44:00,63.7,44.7,29.94,NW,315,1.2,2.0,50,0.00,CLR,OVC,0.00,0.0,WeatherDisplay:10.37,2013-02-04 22:44:00,
2013-02-04 14:49:00,64.0,45.0,29.93,ENE,68,2.3,2.3,50,0.00,CLR,OVC,0.00,0.0,WeatherDisplay:10.37,2013-02-04 22:49:00,
2013-02-04 14:54:00,64.0,44.5,29.93,WSW,248,2.3,2.3,49,0.00,CLR,OVC,0.00,0.0,WeatherDisplay:10.37,2013-02-04 22:54:00,
2013-02-04 14:59:00,64.0,44.5,29.93,East,90,3.5,3.5,49,0.00,CLR,OVC,0.00,0.0,WeatherDisplay:10.37,2013-02-04 22:59:00,
2013-02-04 15:04:00,64.0,43.9,29.93,South,180,2.3,2.3,48,0.00,CLR,OVC,0.00,0.0,WeatherDisplay:10.37,2013-02-04 23:04:00,
2013-02-04 15:09:00,63.9,43.8,29.93,ENE,68,0.0,0.5,48,0.00,CLR,OVC,0.00,0.0,WeatherDisplay:10.37,2013-02-04 23:09:00,
2013-02-04 15:14:00,64.0,43.9,29.93,ESE,112,2.3,2.3,48,0.00,CLR,OVC,0.00,0.0,WeatherDisplay:10.37,2013-02-04 23:14:00,
2013-02-04 15:19:00,64.0,43.9,29.93,SW,225,1.2,1.2,48,0.00,CLR,OVC,0.00,0.0,WeatherDisplay:10.37,2013-02-04 23:19:00,
2013-02-04 15:24:00,64.0,43.9,29.93,South,180,2.3,2.3,48,0.00,CLR,OVC,0.00,0.0,WeatherDisplay:10.37,2013-02-04 23:24:00,
2013-02-04 15:29:00,64.2,43.6,29.92,ESE,112,2.3,2.3,47,0.00,CLR,OVC,0.00,0.0,WeatherDisplay:10.37,2013-02-04 23:29:00,
2013-02-04 15:34:00,64.2,43.6,29.92,WSW,248,2.3,2.3,47,0.00,CLR,OVC,0.00,0.0,WeatherDisplay:10.37,2013-02-04 23:34:00,
2013-02-04 15:39:00,64.0,43.9,29.92,SW,225,2.3,2.3,48,0.00,CLR,OVC,0.00,0.0,WeatherDisplay:10.37,2013-02-04 23:39:00,
2013-02-04 15:44:00,63.9,43.2,29.92,South,180,2.3,2.3,47,0.00,CLR,OVC,0.00,0.0,WeatherDisplay:10.37,2013-02-04 23:44:00,
2013-02-04 15:49:00,63.7,43.6,29.92,South,180,2.3,2.3,48,0.00,CLR,OVC,0.00,0.0,WeatherDisplay:10.37,2013-02-04 23:49:00,
2013-02-04 15:54:00,63.5,43.4,29.92,SSE,158,1.2,1.2,48,0.00,CLR,OVC,0.00,0.0,WeatherDisplay:10.37,2013-02-04 23:54:00,
2013-02-04 15:59:00,63.1,43.1,29.92,ENE,68,2.3,2.3,48,0.00,CLR,OVC,0.00,0.0,WeatherDisplay:10.37,2013-02-04 23:59:00,
2013-02-04 16:04:00,63.1,43.1,29.92,SW,225,1.2,1.2,48,0.00,CLR,OVC,0.00,0.0,WeatherDisplay:10.37,2013-02-05 00:04:00,
2013-02-04 16:09:00,62.8,42.8,29.92,SW,225,1.2,1.2,48,0.00,CLR,OVC,0.00,0.0,WeatherDisplay:10.37,2013-02-05 00:09:00,
2013-02-04 16:14:00,62.8,43.3,29.92,SW,225,3.5,3.5,49,0.00,CLR,OVC,0.00,0.0,WeatherDisplay:10.37,2013-02-05 00:14:00,
2013-02-04 16:19:00,62.6,43.2,29.92,South,180,2.6,2.6,49,0.00,CLR,OVC,0.00,0.0,WeatherDisplay:10.37,2013-02-05 00:19:00,
2013-02-04 16:24:00,62.4,43.0,29.92,South,180,1.2,1.2,49,0.00,CLR,OVC,0.00,0.0,WeatherDisplay:10.37,2013-02-05 00:24:00,
2013-02-04 16:29:00,62.2,42.8,29.92,South,180,1.2,1.2,49,0.00,CLR,OVC,0.00,0.0,WeatherDisplay:10.37,2013-02-05 00:29:00,
2013-02-04 16:34:00,62.1,42.7,29.92,SSW,202,0.0,0.3,49,0.00,CLR,OVC,0.00,0.0,WeatherDisplay:10.37,2013-02-05 00:34:00,
2013-02-04 16:39:00,61.9,42.5,29.92,South,180,0.0,0.2,49,0.00,CLR,OVC,0.00,0.0,WeatherDisplay:10.37,2013-02-05 00:39:00,
2013-02-04 16:44:00,61.7,42.3,29.92,SE,135,2.3,2.3,49,0.00,CLR,OVC,0.00,0.0,WeatherDisplay:10.37,2013-02-05 00:44:00,
2013-02-04 16:49:00,61.5,42.7,29.92,WSW,248,0.0,0.3,50,0.00,CLR,OVC,0.00,0.0,WeatherDisplay:10.37,2013-02-05 00:49:00,
2013-02-04 16:54:00,61.3,42.5,29.92,SE,135,0.0,0.1,50,0.00,CLR,OVC,0.00,0.0,WeatherDisplay:10.37,2013-02-05 00:54:00,
2013-02-04 16:59:00,61.3,42.5,29.92,SSE,158,0.0,0.1,50,0.00,CLR,OVC,0.00,0.0,WeatherDisplay:10.37,2013-02-05 00:59:00,
2013-02-04 17:04:00,61.0,42.2,29.92,South,180,1.2,1.2,50,0.00,CLR,OVC,0.00,0.0,WeatherDisplay:10.37,2013-02-05 01:04:00,
2013-02-04 17:09:00,60.8,42.0,29.93,SW,225,1.2,1.2,50,0.00,CLR,OVC,0.00,0.0,WeatherDisplay:10.37,2013-02-05 01:09:00,
2013-02-04 17:14:00,60.6,42.9,29.93,South,180,1.2,1.2,52,0.00,CLR,OVC,0.00,0.0,WeatherDisplay:10.37,2013-02-05 01:14:00,
2013-02-04 17:19:00,60.4,43.2,29.93,SW,225,1.2,1.2,53,0.00,CLR,OVC,0.00,0.0,WeatherDisplay:10.37,2013-02-05 01:19:00,
2013-02-04 17:24:00,60.3,43.1,29.93,SW,225,0.0,0.2,53,0.00,CLR,OVC,0.00,0.0,WeatherDisplay:10.37,2013-02-05 01:24:00,
2013-02-04 17:29:00,59.9,42.7,29.93,SE,135,0.0,0.0,53,0.00,CLR,OVC,0.00,0.0,WeatherDisplay:10.37,2013-02-05 01:29:00,
2013-02-04 17:34:00,59.5,42.4,29.93,SE,135,0.0,0.0,53,0.00,CLR,OVC,0.00,0.0,WeatherDisplay:10.37,2013-02-05 01:34:00,
2013-02-04 17:39:00,59.4,42.7,29.93,NE,45,0.0,0.0,54,0.00,CLR,OVC,0.00,0.0,WeatherDisplay:10.37,2013-02-05 01:39:00,
2013-02-04 17:44:00,58.8,42.2,29.93,East,90,0.0,0.0,54,0.00,CLR,OVC,0.00,0.0,WeatherDisplay:10.37,2013-02-05 01:44:00,
2013-02-04 17:49:00,58.5,42.3,29.92,East,90,0.0,0.0,55,0.00,CLR,OVC,0.00,0.0,WeatherDisplay:10.37,2013-02-05 01:49:00,
2013-02-04 17:54:00,58.3,42.2,29.92,East,90,0.0,0.0,55,0.00,CLR,OVC,0.00,0.0,WeatherDisplay:10.37,2013-02-05 01:54:00,
2013-02-04 17:59:00,58.1,42.0,29.92,NE,45,0.0,0.0,55,0.00,CLR,OVC,0.00,0.0,WeatherDisplay:10.37,2013-02-05 01:59:00,
2013-02-04 18:04:00,57.7,42.1,29.92,East,90,0.0,0.0,56,0.00,CLR,OVC,0.00,0.0,WeatherDisplay:10.37,2013-02-05 02:04:00,
2013-02-04 18:09:00,57.6,42.0,29.92,East,90,0.0,0.0,56,0.00,CLR,OVC,0.00,0.0,WeatherDisplay:10.37,2013-02-05 02:09:00,
2013-02-04 18:14:00,57.2,41.6,29.92,ESE,112,0.0,0.0,56,0.00,CLR,OVC,0.00,0.0,WeatherDisplay:10.37,2013-02-05 02:14:00,
2013-02-04 18:19:00,57.0,41.5,29.92,ESE,112,0.0,0.0,56,0.00,CLR,OVC,0.00,0.0,WeatherDisplay:10.37,2013-02-05 02:19:00,
2013-02-04 18:24:00,56.8,41.8,29.92,East,90,0.0,0.0,57,0.00,CLR,OVC,0.00,0.0,WeatherDisplay:10.37,2013-02-05 02:24:00,
2013-02-04 18:29:00,56.7,41.6,29.91,NNE,22,0.0,0.0,57,0.00,CLR,OVC,0.00,0.0,WeatherDisplay:10.37,2013-02-05 02:29:00,
2013-02-04 18:34:00,56.3,41.3,29.91,NNE,22,0.0,0.0,57,0.00,CLR,OVC,0.00,0.0,WeatherDisplay:10.37,2013-02-05 02:34:00,
2013-02-04 18:39:00,56.1,41.1,29.91,NNE,22,0.0,0.0,57,0.00,CLR,OVC,0.00,0.0,WeatherDisplay:10.37,2013-02-05 02:39:00,
2013-02-04 18:44:00,55.8,41.2,29.91,East,90,0.0,0.0,58,0.00,CLR,OVC,0.00,0.0,WeatherDisplay:10.37,2013-02-05 02:44:00,
2013-02-04 18:49:00,55.6,41.0,29.92,ESE,112,0.0,0.0,58,0.00,CLR,OVC,0.00,0.0,WeatherDisplay:10.37,2013-02-05 02:49:00,
2013-02-04 18:54:00,55.6,41.0,29.92,ESE,112,0.0,0.0,58,0.00,CLR,OVC,0.00,0.0,WeatherDisplay:10.37,2013-02-05 02:54:00,
2013-02-04 18:59:00,55.2,41.1,29.92,ESE,112,0.0,0.0,59,0.00,CLR,OVC,0.00,0.0,WeatherDisplay:10.37,2013-02-05 02:59:00,
2013-02-04 19:04:00,55.2,41.1,29.92,ESE,112,0.0,0.0,59,0.00,CLR,OVC,0.00,0.0,WeatherDisplay:10.37,2013-02-05 03:04:00,
2013-02-04 19:09:00,54.9,40.8,29.92,NNE,22,0.0,0.0,59,0.00,CLR,OVC,0.00,0.0,WeatherDisplay:10.37,2013-02-05 03:09:00,
2013-02-04 19:14:00,54.7,40.6,29.92,NNE,22,0.0,0.0,59,0.00,CLR,OVC,0.00,0.0,WeatherDisplay:10.37,2013-02-05 03:14:00,
2013-02-04 19:19:00,54.5,40.5,29.92,North,0,0.0,0.0,59,0.00,CLR,OVC,0.00,0.0,WeatherDisplay:10.37,2013-02-05 03:19:00,
2013-02-04 19:24:00,54.1,40.1,29.92,ENE,68,0.0,0.0,59,0.00,CLR,OVC,0.00,0.0,WeatherDisplay:10.37,2013-02-05 03:24:00,
2013-02-04 19:29:00,54.1,40.1,29.94,NNE,22,0.0,0.0,59,0.00,CLR,OVC,0.00,0.0,WeatherDisplay:10.37,2013-02-05 03:29:00,
2013-02-04 19:34:00,53.8,39.8,29.94,SE,135,0.0,0.0,59,0.00,CLR,OVC,0.00,0.0,WeatherDisplay:10.37,2013-02-05 03:34:00,
2013-02-04 19:39:00,53.6,40.0,29.94,ESE,112,0.0,0.0,60,0.00,CLR,OVC,0.00,0.0,WeatherDisplay:10.37,2013-02-05 03:39:00,
2013-02-04 19:44:00,53.4,40.3,29.94,NNW,338,0.0,0.0,61,0.00,CLR,OVC,0.00,0.0,WeatherDisplay:10.37,2013-02-05 03:44:00,
2013-02-04 19:49:00,53.2,40.1,29.91,NW,315,0.0,0.0,61,0.00,CLR,OVC,0.00,0.0,WeatherDisplay:10.37,2013-02-05 03:49:00,
2013-02-04 19:54:00,53.1,40.0,29.91,ESE,112,0.0,0.0,61,0.00,CLR,OVC,0.00,0.0,WeatherDisplay:10.37,2013-02-05 03:54:00,
2013-02-04 19:59:00,52.9,39.8,29.91,NE,45,0.0,0.0,61,0.00,CLR,OVC,0.00,0.0,WeatherDisplay:10.37,2013-02-05 03:59:00,
2013-02-04 20:04:00,52.7,40.0,29.91,ENE,68,0.0,0.0,62,0.00,CLR,OVC,0.00,0.0,WeatherDisplay:10.37,2013-02-05 04:04:00,
2013-02-04 20:09:00,52.5,39.9,29.92,ESE,112,0.0,0.0,62,0.00,CLR,OVC,0.00,0.0,WeatherDisplay:10.37,2013-02-05 04:09:00,
2013-02-04 20:14:00,52.3,39.7,29.92,SE,135,0.0,0.0,62,0.00,CLR,OVC,0.00,0.0,WeatherDisplay:10.37,2013-02-05 04:14:00,
2013-02-04 20:19:00,52.2,39.5,29.92,SE,135,0.0,0.0,62,0.00,CLR,OVC,0.00,0.0,WeatherDisplay:10.37,2013-02-05 04:19:00,
2013-02-04 20:24:00,52.0,39.8,29.92,WSW,248,0.0,0.0,63,0.00,CLR,OVC,0.00,0.0,WeatherDisplay:10.37,2013-02-05 04:24:00,
2013-02-04 20:29:00,51.8,39.6,29.92,SW,225,0.0,0.0,63,0.00,CLR,OVC,0.00,0.0,WeatherDisplay:10.37,2013-02-05 04:29:00,
2013-02-04 20:34:00,51.8,39.6,29.92,SSW,202,0.0,0.0,63,0.00,CLR,OVC,0.00,0.0,WeatherDisplay:10.37,2013-02-05 04:34:00,
2013-02-04 20:39:00,51.6,39.8,29.92,West,270,0.0,0.0,64,0.00,CLR,OVC,0.00,0.0,WeatherDisplay:10.37,2013-02-05 04:39:00,
2013-02-04 20:44:00,51.4,39.7,29.92,North,0,0.0,0.0,64,0.00,CLR,OVC,0.00,0.0,WeatherDisplay:10.37,2013-02-05 04:44:00,
2013-02-04 20:49:00,51.3,39.5,29.91,ENE,68,0.0,0.0,64,0.00,CLR,OVC,0.00,0.0,WeatherDisplay:10.37,2013-02-05 04:49:00,
2013-02-04 20:54:00,51.3,39.5,29.91,SE,135,0.0,0.0,64,0.00,CLR,OVC,0.00,0.0,WeatherDisplay:10.37,2013-02-05 04:54:00,
2013-02-04 20:59:00,51.1,39.7,29.91,SSE,158,0.0,0.0,65,0.00,CLR,OVC,0.00,0.0,WeatherDisplay:10.37,2013-02-05 04:59:00,
2013-02-04 21:00:00,51.1,39.7,29.91,SSE,158,0.0,0.0,65,0.00,CLR,OVC,0.00,0.0,WeatherDisplay:10.37,2013-02-05 05:00:00,
2013-02-04 21:01:00,51.1,39.7,29.91,ESE,112,0.0,0.0,65,0.00,CLR,OVC,0.00,0.0,WeatherDisplay:10.37,2013-02-05 05:01:00,
2013-02-04 21:06:00,50.9,39.5,29.91,East,90,0.0,0.0,65,0.00,CLR,OVC,0.00,0.0,WeatherDisplay:10.37,2013-02-05 05:06:00,
2013-02-04 21:11:00,50.9,39.5,29.92,East,90,0.0,0.0,65,0.00,CLR,OVC,0.00,0.0,WeatherDisplay:10.37,2013-02-05 05:11:00,
2013-02-04 21:16:00,50.7,39.4,29.92,NNE,22,0.0,0.0,65,0.00,CLR,OVC,0.00,0.0,WeatherDisplay:10.37,2013-02-05 05:16:00,
2013-02-04 21:21:00,50.7,39.4,29.92,NW,315,0.0,0.0,65,0.00,CLR,OVC,0.00,0.0,WeatherDisplay:10.37,2013-02-05 05:21:00,
2013-02-04 21:26:00,50.5,39.6,29.92,WNW,292,0.0,0.0,66,0.00,CLR,OVC,0.00,0.0,WeatherDisplay:10.37,2013-02-05 05:26:00,
2013-02-04 21:31:00,50.5,39.6,29.92,West,270,0.0,0.0,66,0.00,CLR,OVC,0.00,0.0,WeatherDisplay:10.37,2013-02-05 05:31:00,
2013-02-04 21:36:00,50.5,39.6,29.92,SW,225,0.0,0.0,66,0.00,CLR,OVC,0.00,0.0,WeatherDisplay:10.37,2013-02-05 05:36:00,
2013-02-04 21:41:00,50.4,39.4,29.92,SW,225,0.0,0.0,66,0.00,CLR,OVC,0.00,0.0,WeatherDisplay:10.37,2013-02-05 05:41:00,
2013-02-04 21:46:00,50.2,39.6,29.92,SW,225,1.2,1.2,67,0.00,CLR,OVC,0.00,0.0,WeatherDisplay:10.37,2013-02-05 05:46:00,
2013-02-04 21:51:00,50.2,39.6,29.91,West,270,0.0,0.1,67,0.00,CLR,OVC,0.00,0.0,WeatherDisplay:10.37,2013-02-05 05:51:00,
2013-02-04 21:56:00,50.2,40.0,29.91,SW,225,1.3,1.3,68,0.00,CLR,OVC,0.00,0.0,WeatherDisplay:10.37,2013-02-05 05:56:00,
2013-02-04 22:01:00,50.2,40.0,29.91,West,270,1.2,1.2,68,0.00,CLR,OVC,0.00,0.0,WeatherDisplay:10.37,2013-02-05 06:01:00,
2013-02-04 22:06:00,50.0,40.2,29.91,SW,225,1.2,1.2,69,0.00,CLR,OVC,0.00,0.0,WeatherDisplay:10.37,2013-02-05 06:06:00,
2013-02-04 22:11:00,50.0,40.2,29.92,WSW,248,1.2,1.2,69,0.00,CLR,OVC,0.00,0.0,WeatherDisplay:10.37,2013-02-05 06:11:00,
2013-02-04 22:16:00,50.0,40.6,29.92,SW,225,3.5,3.5,70,0.00,CLR,OVC,0.00,0.0,WeatherDisplay:10.37,2013-02-05 06:16:00,
2013-02-04 22:21:00,49.8,40.8,29.92,SW,225,2.3,2.3,71,0.00,CLR,OVC,0.00,0.0,WeatherDisplay:10.37,2013-02-05 06:21:00,
2013-02-04 22:26:00,49.8,40.8,29.92,SSW,202,0.0,0.2,71,0.00,CLR,OVC,0.00,0.0,WeatherDisplay:10.37,2013-02-05 06:26:00,
2013-02-04 22:31:00,49.6,40.6,29.92,SW,225,0.0,0.1,71,0.00,CLR,OVC,0.00,0.0,WeatherDisplay:10.37,2013-02-05 06:31:00,
2013-02-04 22:36:00,49.5,40.8,29.92,WSW,248,1.8,1.8,72,0.00,CLR,OVC,0.00,0.0,WeatherDisplay:10.37,2013-02-05 06:36:00,
2013-02-04 22:41:00,49.5,40.8,29.92,SW,225,2.3,2.3,72,0.00,CLR,OVC,0.00,0.0,WeatherDisplay:10.37,2013-02-05 06:41:00,
2013-02-04 22:46:00,49.3,41.0,29.92,SW,225,2.3,2.3,73,0.00,CLR,OVC,0.00,0.0,WeatherDisplay:10.37,2013-02-05 06:46:00,
2013-02-04 22:51:00,49.1,40.8,29.92,SW,225,2.3,2.3,73,0.00,CLR,OVC,0.00,0.0,WeatherDisplay:10.37,2013-02-05 06:51:00,
2013-02-04 22:56:00,49.1,40.8,29.92,WNW,292,2.3,2.3,73,0.00,CLR,OVC,0.00,0.0,WeatherDisplay:10.37,2013-02-05 06:56:00,
2013-02-04 23:01:00,48.9,41.0,29.92,WSW,248,2.3,2.3,74,0.00,CLR,OVC,0.00,0.0,WeatherDisplay:10.37,2013-02-05 07:01:00,
2013-02-04 23:06:00,48.9,41.0,29.92,SW,225,2.3,2.3,74,0.00,CLR,OVC,0.00,0.0,WeatherDisplay:10.37,2013-02-05 07:06:00,
2013-02-04 23:11:00,48.9,41.0,29.93,WSW,248,3.5,3.5,74,0.00,CLR,OVC,0.00,0.0,WeatherDisplay:10.37,2013-02-05 07:11:00,
2013-02-04 23:16:00,48.7,41.2,29.93,SSW,202,2.3,2.3,75,0.00,CLR,OVC,0.00,0.0,WeatherDisplay:10.37,2013-02-05 07:16:00,
2013-02-04 23:21:00,48.6,41.0,29.93,South,180,2.3,2.3,75,0.00,CLR,OVC,0.00,0.0,WeatherDisplay:10.37,2013-02-05 07:21:00,
2013-02-04 23:26:00,48.4,40.8,29.93,SW,225,2.5,2.5,75,0.00,CLR,OVC,0.00,0.0,WeatherDisplay:10.37,2013-02-05 07:26:00,
2013-02-04 23:31:00,48.4,41.2,29.92,South,180,2.3,2.3,76,0.00,CLR,OVC,0.00,0.0,WeatherDisplay:10.37,2013-02-05 07:31:00,
2013-02-04 23:36:00,48.2,41.0,29.92,South,180,1.2,1.2,76,0.00,CLR,OVC,0.00,0.0,WeatherDisplay:10.37,2013-02-05 07:36:00,
2013-02-04 23:41:00,48.2,41.0,29.92,SSW,202,1.2,1.2,76,0.00,CLR,OVC,0.00,0.0,WeatherDisplay:10.37,2013-02-05 07:41:00,
2013-02-04 23:46:00,48.0,40.8,29.92,SE,135,0.0,0.2,76,0.00,CLR,OVC,0.00,0.0,WeatherDisplay:10.37,2013-02-05 07:46:00,
2013-02-04 23:51:00,48.0,40.8,29.95,SW,225,0.0,0.0,76,0.00,CLR,OVC,0.00,0.0,WeatherDisplay:10.37,2013-02-05 07:51:00,
2013-02-04 23:56:00,47.8,40.6,29.95,SE,135,1.0,0.0,76,0.00,CLR,OVC,0.00,0.0,WeatherDisplay:10.37,2013-02-05 07:56:00,